createdAt,value
2022-10-03T00:01:09.932Z,10.09
2022-10-03T00:03:42.796Z,10.12
2022-10-03T00:06:14.192Z,10.14
2022-10-03T00:08:58.075Z,10.28
2022-10-03T00:11:33.839Z,10.49
2022-10-03T00:14:04.673Z,10.36
2022-10-03T00:16:40.368Z,10.31
2022-10-03T00:19:15.233Z,10.16
2022-10-03T00:21:54.834Z,9.92
2022-10-03T00:24:29.605Z,9.94
2022-10-03T00:27:03.580Z,9.90
2022-10-03T00:29:49.154Z,9.88
2022-10-03T00:32:30.270Z,9.90
2022-10-03T00:35:24.109Z,10.18
2022-10-03T00:38:03.338Z,10.21
2022-10-03T00:40:40.487Z,10.16
2022-10-03T00:44:04.130Z,10.08
2022-10-03T00:47:17.317Z,10.19
2022-10-03T00:50:02.823Z,10.19
2022-10-03T00:53:04.693Z,10.30
2022-10-03T00:55:43.291Z,10.33
2022-10-03T00:58:26.665Z,10.29
2022-10-03T01:01:00.242Z,10.31
2022-10-03T01:03:39.801Z,10.14
2022-10-03T01:06:16.299Z,10.07
2022-10-03T01:09:04.312Z,9.93
2022-10-03T01:11:42.931Z,9.88
2022-10-03T01:14:20.770Z,9.83
2022-10-03T01:17:01.062Z,9.85
2022-10-03T01:19:37.601Z,9.90
2022-10-03T01:22:22.036Z,9.95
2022-10-03T01:24:55.463Z,9.83
2022-10-03T01:27:33.020Z,9.82
2022-10-03T01:30:20.684Z,9.66
2022-10-03T01:32:52.907Z,9.63
2022-10-03T01:35:29.873Z,9.53
2022-10-03T01:38:06.277Z,9.53
2022-10-03T01:40:38.703Z,9.42
2022-10-03T01:43:13.422Z,9.32
2022-10-03T01:45:50.742Z,9.30
2022-10-03T01:48:23.155Z,9.32
2022-10-03T01:50:59.027Z,9.20
2022-10-03T01:53:34.635Z,9.20
2022-10-03T01:56:06.475Z,9.23
2022-10-03T01:58:46.848Z,9.14
2022-10-03T02:01:23.673Z,9.24
2022-10-03T02:03:56.189Z,9.16
2022-10-03T02:06:32.885Z,9.11
2022-10-03T02:09:06.170Z,9.17
2022-10-03T02:11:39.167Z,9.10
2022-10-03T02:14:17.304Z,9.06
2022-10-03T02:16:52.731Z,9.04
2022-10-03T02:19:24.012Z,8.93
2022-10-03T02:21:52.992Z,8.95
2022-10-03T02:24:40.513Z,8.92
2022-10-03T02:27:34.217Z,8.84
2022-10-03T02:30:11.365Z,8.83
2022-10-03T02:33:22.213Z,8.83
2022-10-03T02:36:16.913Z,8.78
2022-10-03T02:39:00.534Z,8.76
2022-10-03T02:41:55.617Z,8.74
2022-10-03T02:44:38.648Z,8.78
2022-10-03T02:47:44.968Z,8.66
2022-10-03T02:50:50.938Z,8.63
2022-10-03T02:53:56.413Z,8.64
2022-10-03T02:56:42.515Z,8.54
2022-10-03T02:59:34.467Z,8.46
2022-10-03T03:02:15.318Z,8.44
2022-10-03T03:05:24.316Z,8.41
2022-10-03T03:08:24.468Z,8.45
2022-10-03T03:11:08.690Z,8.42
2022-10-03T03:13:59.064Z,8.29
2022-10-03T03:16:41.886Z,8.23
2022-10-03T03:19:19.820Z,8.16
2022-10-03T03:21:54.848Z,8.12
2022-10-03T03:24:42.739Z,8.06
2022-10-03T03:27:32.870Z,7.95
2022-10-03T03:30:04.359Z,7.87
2022-10-03T03:32:45.964Z,7.80
2022-10-03T03:35:22.769Z,7.88
2022-10-03T03:38:00.753Z,7.89
2022-10-03T03:40:41.216Z,7.88
2022-10-03T03:43:29.208Z,7.93
2022-10-03T03:46:07.549Z,7.84
2022-10-03T03:48:50.443Z,7.93
2022-10-03T03:51:24.414Z,7.79
2022-10-03T03:54:09.442Z,7.63
2022-10-03T03:56:50.383Z,7.65
2022-10-03T03:59:31.252Z,7.74
2022-10-03T04:02:19.543Z,7.82
2022-10-03T04:04:59.823Z,7.58
2022-10-03T04:07:40.438Z,7.62
2022-10-03T04:10:26.934Z,7.61
2022-10-03T04:13:09.951Z,7.62
2022-10-03T04:15:53.857Z,7.69
2022-10-03T04:18:48.314Z,7.81
2022-10-03T04:21:36.109Z,7.91
2022-10-03T04:24:29.342Z,7.98
2022-10-03T04:27:05.422Z,8.06
2022-10-03T04:29:48.012Z,8.16
2022-10-03T04:32:26.723Z,8.21
2022-10-03T04:35:07.148Z,8.28
2022-10-03T04:37:40.749Z,8.29
2022-10-03T04:40:20.161Z,8.38
2022-10-03T04:42:53.684Z,8.32
2022-10-03T04:45:36.982Z,8.31
2022-10-03T04:48:12.835Z,8.30
2022-10-03T04:50:43.349Z,8.29
2022-10-03T04:53:25.201Z,8.33
2022-10-03T04:55:58.111Z,8.36
2022-10-03T04:58:33.029Z,8.34
2022-10-03T05:01:08.931Z,8.41
2022-10-03T05:03:44.480Z,8.35
2022-10-03T05:06:26.312Z,8.30
2022-10-03T05:08:59.539Z,8.43
2022-10-03T05:11:39.517Z,8.48
2022-10-03T05:14:11.890Z,8.45
2022-10-03T05:16:46.370Z,8.44
2022-10-03T05:19:41.565Z,8.46
2022-10-03T05:22:13.122Z,8.44
2022-10-03T05:24:46.365Z,8.41
2022-10-03T05:27:24.971Z,8.40
2022-10-03T05:30:00.428Z,8.39
2022-10-03T05:32:34.103Z,8.40
2022-10-03T05:35:15.059Z,8.40
2022-10-03T05:38:00.148Z,8.48
2022-10-03T05:40:29.485Z,8.49
2022-10-03T05:43:04.231Z,8.53
2022-10-03T05:45:43.394Z,8.49
2022-10-03T05:48:23.952Z,8.54
2022-10-03T05:51:22.385Z,8.64
2022-10-03T05:54:03.766Z,8.46
2022-10-03T05:56:45.867Z,8.67
2022-10-03T05:59:36.805Z,8.65
2022-10-03T06:02:22.949Z,8.71
2022-10-03T06:05:14.106Z,8.77
2022-10-03T06:07:52.144Z,8.70
2022-10-03T06:10:45.555Z,8.71
2022-10-03T06:13:21.803Z,8.83
2022-10-03T06:15:59.977Z,8.86
2022-10-03T06:18:40.035Z,8.84
2022-10-03T06:21:27.434Z,8.96
2022-10-03T06:24:20.607Z,8.93
2022-10-03T06:27:19.412Z,8.99
2022-10-03T06:30:11.601Z,8.98
2022-10-03T06:33:29.185Z,8.99
2022-10-03T06:36:49.620Z,8.96
2022-10-03T06:39:49.655Z,9.02
2022-10-03T06:42:45.063Z,9.05
2022-10-03T06:45:51.146Z,9.11
2022-10-03T06:48:50.504Z,9.10
2022-10-03T06:51:41.044Z,9.09
2022-10-03T06:54:52.680Z,9.09
2022-10-03T06:57:32.897Z,9.18
2022-10-03T07:00:10.767Z,9.22
2022-10-03T07:03:21.594Z,9.28
2022-10-03T07:06:22.652Z,9.41
2022-10-03T07:09:20.631Z,9.46
2022-10-03T07:12:13.433Z,9.61
2022-10-03T07:15:15.746Z,9.66
2022-10-03T07:17:57.163Z,9.72
2022-10-03T07:20:46.405Z,9.93
2022-10-03T07:23:42.027Z,10.01
2022-10-03T07:26:32.775Z,10.08
2022-10-03T07:29:24.624Z,10.18
2022-10-03T07:32:18.203Z,10.27
2022-10-03T07:35:21.093Z,10.35
2022-10-03T07:38:24.917Z,10.31
2022-10-03T07:41:15.524Z,10.42
2022-10-03T07:44:13.444Z,10.51
2022-10-03T07:47:19.618Z,10.62
2022-10-03T07:50:00.136Z,10.66
2022-10-03T07:52:47.919Z,10.81
2022-10-03T07:55:29.578Z,10.87
2022-10-03T07:58:20.666Z,10.93
2022-10-03T08:01:05.132Z,11.02
2022-10-03T08:04:02.501Z,11.12
2022-10-03T08:06:38.728Z,11.20
2022-10-03T08:09:27.865Z,11.27
2022-10-03T08:12:20.189Z,11.24
2022-10-03T08:14:58.002Z,11.39
2022-10-03T08:17:53.377Z,11.33
2022-10-03T08:20:46.945Z,11.33
2022-10-03T08:23:50.121Z,11.44
2022-10-03T08:26:21.528Z,11.51
2022-10-03T08:28:59.683Z,11.57
2022-10-03T08:32:04.855Z,11.67
2022-10-03T08:34:50.812Z,11.73
2022-10-03T08:37:53.711Z,11.88
2022-10-03T08:40:56.477Z,11.98
2022-10-03T08:43:55.694Z,12.03
2022-10-03T08:46:41.788Z,12.23
2022-10-03T08:49:24.705Z,12.29
2022-10-03T08:52:21.874Z,12.46
2022-10-03T08:55:22.678Z,12.52
2022-10-03T08:58:28.252Z,12.48
2022-10-03T09:01:13.257Z,12.69
2022-10-03T09:04:32.463Z,12.79
2022-10-03T09:07:17.884Z,12.94
2022-10-03T09:10:23.401Z,12.87
2022-10-03T09:13:41.404Z,12.97
2022-10-03T09:16:42.138Z,13.03
2022-10-03T09:19:23.061Z,13.28
2022-10-03T09:22:14.345Z,13.34
2022-10-03T09:25:16.705Z,13.40
2022-10-03T09:28:28.646Z,13.51
2022-10-03T09:31:06.423Z,13.48
2022-10-03T09:34:15.458Z,13.60
2022-10-03T09:37:13.020Z,13.55
2022-10-03T09:40:00.253Z,13.63
2022-10-03T09:42:51.361Z,13.45
2022-10-03T09:45:40.021Z,13.62
2022-10-03T09:48:32.639Z,13.80
2022-10-03T09:51:27.008Z,13.52
2022-10-03T09:54:34.155Z,13.63
2022-10-03T09:57:38.745Z,13.71
2022-10-03T10:00:17.414Z,13.83
2022-10-03T10:03:31.311Z,13.92
2022-10-03T10:06:23.964Z,13.81
2022-10-03T10:09:25.240Z,13.92
2022-10-03T10:12:12.809Z,14.06
2022-10-03T10:15:07.898Z,13.96
2022-10-03T10:18:10.971Z,14.18
2022-10-03T10:21:04.756Z,14.32
2022-10-03T10:23:40.506Z,14.16
2022-10-03T10:26:45.122Z,14.09
2022-10-03T10:29:34.196Z,14.25
2022-10-03T10:32:28.805Z,14.06
2022-10-03T10:35:24.763Z,14.00
2022-10-03T10:38:04.488Z,14.06
2022-10-03T10:40:49.119Z,14.17
2022-10-03T10:43:51.161Z,14.27
2022-10-03T10:47:06.564Z,14.26
2022-10-03T10:50:20.420Z,14.21
2022-10-03T10:53:27.786Z,14.13
2022-10-03T10:56:22.741Z,14.38
2022-10-03T10:59:15.409Z,14.41
2022-10-03T11:02:07.738Z,14.47
2022-10-03T11:05:08.141Z,14.17
2022-10-03T11:08:16.645Z,14.13
2022-10-03T11:10:59.976Z,14.18
2022-10-03T11:13:57.456Z,13.98
2022-10-03T11:16:58.035Z,14.00
2022-10-03T11:20:01.911Z,14.10
2022-10-03T11:23:07.030Z,14.10
2022-10-03T11:26:19.489Z,14.09
2022-10-03T11:29:40.968Z,14.13
2022-10-03T11:32:33.408Z,14.06
2022-10-03T11:35:36.087Z,14.07
2022-10-03T11:38:11.846Z,13.94
2022-10-03T11:40:50.836Z,13.97
2022-10-03T11:44:01.391Z,13.96
2022-10-03T11:46:42.229Z,13.88
2022-10-03T11:49:37.676Z,13.94
2022-10-03T11:52:14.321Z,13.71
2022-10-03T11:54:44.251Z,13.73
2022-10-03T11:57:17.362Z,13.97
2022-10-03T11:59:57.858Z,13.82
2022-10-03T12:02:42.251Z,13.92
2022-10-03T12:05:19.237Z,13.93
2022-10-03T12:08:07.909Z,13.92
2022-10-03T12:10:44.886Z,13.97
2022-10-03T12:13:16.545Z,13.81
2022-10-03T12:15:47.933Z,13.74
2022-10-03T12:18:18.495Z,13.87
2022-10-03T12:21:09.375Z,13.93
2022-10-03T12:23:55.881Z,13.97
2022-10-03T12:26:43.809Z,14.03
2022-10-03T12:29:12.693Z,14.10
2022-10-03T12:31:43.735Z,14.07
2022-10-03T12:34:25.860Z,14.08
2022-10-03T12:37:08.126Z,14.03
2022-10-03T12:39:40.636Z,13.92
2022-10-03T12:42:26.726Z,13.83
2022-10-03T12:44:59.687Z,13.84
2022-10-03T12:47:54.755Z,13.83
2022-10-03T12:50:40.685Z,13.92
2022-10-03T12:53:23.809Z,13.90
2022-10-03T12:56:00.812Z,14.00
2022-10-03T12:58:38.113Z,13.93
2022-10-03T13:01:12.075Z,13.92
2022-10-03T13:03:49.672Z,13.93
2022-10-03T13:07:01.919Z,14.05
2022-10-03T13:09:36.334Z,14.06
2022-10-03T13:12:07.654Z,14.16
2022-10-03T13:15:18.242Z,14.35
2022-10-03T13:17:50.194Z,14.33
2022-10-03T13:20:22.879Z,14.27
2022-10-03T13:22:57.091Z,14.26
2022-10-03T13:25:32.023Z,14.32
2022-10-03T13:28:06.470Z,14.45
2022-10-03T13:30:41.908Z,14.32
2022-10-03T13:33:14.730Z,14.21
2022-10-03T13:36:02.740Z,14.37
2022-10-03T13:38:58.621Z,14.39
2022-10-03T13:41:43.731Z,14.28
2022-10-03T13:44:17.733Z,14.29
2022-10-03T13:46:53.186Z,14.45
2022-10-03T13:49:31.915Z,14.46
2022-10-03T13:52:03.106Z,14.29
2022-10-03T13:54:47.935Z,14.39
2022-10-03T13:57:18.403Z,14.20
2022-10-03T13:59:56.660Z,14.37
2022-10-03T14:02:41.931Z,14.38
2022-10-03T14:05:30.496Z,14.38
2022-10-03T14:08:05.984Z,14.53
2022-10-03T14:10:50.625Z,14.36
2022-10-03T14:13:24.134Z,14.38
2022-10-03T14:15:53.661Z,14.56
2022-10-03T14:18:30.166Z,14.45
2022-10-03T14:21:37.729Z,14.65
2022-10-03T14:24:13.362Z,14.56
2022-10-03T14:26:45.579Z,14.61
2022-10-03T14:29:19.966Z,14.52
2022-10-03T14:31:56.232Z,14.63
2022-10-03T14:34:35.457Z,14.63
2022-10-03T14:37:13.906Z,14.58
2022-10-03T14:39:44.220Z,14.51
2022-10-03T14:42:36.158Z,14.53
2022-10-03T14:45:09.817Z,14.63
2022-10-03T14:47:41.536Z,14.54
2022-10-03T14:50:16.137Z,14.57
2022-10-03T14:52:47.135Z,14.38
2022-10-03T14:55:17.630Z,14.50
2022-10-03T14:58:09.390Z,14.51
2022-10-03T15:00:43.632Z,14.48
2022-10-03T15:03:21.865Z,14.51
2022-10-03T15:05:58.813Z,14.57
2022-10-03T15:08:32.245Z,14.57
2022-10-03T15:11:00.262Z,14.51
2022-10-03T15:13:28.901Z,14.40
2022-10-03T15:15:57.961Z,14.51
2022-10-03T15:18:25.819Z,14.48
2022-10-03T15:20:55.334Z,14.44
2022-10-03T15:23:27.347Z,14.55
2022-10-03T15:25:55.352Z,14.54
2022-10-03T15:28:28.185Z,14.42
2022-10-03T15:30:59.047Z,14.36
2022-10-03T15:33:30.541Z,14.27
2022-10-03T15:36:04.820Z,14.23
2022-10-03T15:38:35.781Z,14.32
2022-10-03T15:41:10.803Z,14.29
2022-10-03T15:43:43.336Z,14.36
2022-10-03T15:46:19.503Z,14.36
2022-10-03T15:48:52.451Z,14.43
2022-10-03T15:51:20.972Z,14.28
2022-10-03T15:53:49.656Z,14.28
2022-10-03T15:56:22.196Z,14.31
2022-10-03T15:58:51.913Z,14.28
2022-10-03T16:01:23.579Z,14.24
2022-10-03T16:03:53.575Z,14.18
2022-10-03T16:06:22.937Z,14.16
2022-10-03T16:08:58.362Z,14.12
2022-10-03T16:11:28.023Z,14.03
2022-10-03T16:14:12.784Z,13.98
2022-10-03T16:16:47.219Z,13.86
2022-10-03T16:19:28.393Z,13.78
2022-10-03T16:22:03.504Z,13.65
2022-10-03T16:24:35.133Z,13.62
2022-10-03T16:27:16.757Z,13.53
2022-10-03T16:29:49.871Z,13.50
2022-10-03T16:32:22.124Z,13.44
2022-10-03T16:34:50.600Z,13.35
2022-10-03T16:37:20.951Z,13.29
2022-10-03T16:39:55.688Z,13.20
2022-10-03T16:42:25.958Z,13.19
2022-10-03T16:44:56.005Z,13.10
2022-10-03T16:47:34.626Z,12.95
2022-10-03T16:50:20.260Z,12.85
2022-10-03T16:52:49.681Z,12.76
2022-10-03T16:55:18.945Z,12.68
2022-10-03T16:57:50.507Z,12.53
2022-10-03T17:00:22.373Z,12.48
2022-10-03T17:02:51.665Z,12.38
2022-10-03T17:05:20.227Z,12.32
2022-10-03T17:07:49.749Z,12.27
2022-10-03T17:10:28.455Z,12.24
2022-10-03T17:13:03.401Z,12.12
2022-10-03T17:15:33.982Z,12.09
2022-10-03T17:18:15.882Z,12.10
2022-10-03T17:20:48.164Z,11.98
2022-10-03T17:23:25.095Z,11.91
2022-10-03T17:26:00.695Z,11.84
2022-10-03T17:28:34.891Z,11.72
2022-10-03T17:31:05.982Z,11.76
2022-10-03T17:33:39.867Z,11.58
2022-10-03T17:36:45.636Z,11.51
2022-10-03T17:39:21.247Z,11.43
2022-10-03T17:41:52.753Z,11.37
2022-10-03T17:44:27.639Z,11.29
2022-10-03T17:46:59.868Z,11.33
2022-10-03T17:49:41.357Z,11.28
2022-10-03T17:52:15.211Z,11.21
2022-10-03T17:54:45.956Z,11.17
2022-10-03T17:57:17.959Z,11.23
2022-10-03T17:59:50.542Z,11.25
2022-10-03T18:02:21.793Z,11.20
2022-10-03T18:04:59.695Z,11.25
2022-10-03T18:07:29.039Z,11.21
2022-10-03T18:09:56.932Z,11.14
2022-10-03T18:12:30.950Z,11.19
2022-10-03T18:15:24.263Z,11.13
2022-10-03T18:18:03.089Z,11.15
2022-10-03T18:20:44.646Z,11.12
2022-10-03T18:23:31.055Z,11.14
2022-10-03T18:26:19.109Z,11.05
2022-10-03T18:28:51.782Z,11.03
2022-10-03T18:31:20.482Z,11.00
2022-10-03T18:33:52.032Z,10.98
2022-10-03T18:36:24.353Z,10.94
2022-10-03T18:38:53.020Z,10.93
2022-10-03T18:41:20.694Z,10.88
2022-10-03T18:43:58.622Z,10.80
2022-10-03T18:46:30.092Z,10.76
2022-10-03T18:49:32.485Z,10.72
2022-10-03T18:51:58.252Z,10.65
2022-10-03T18:54:34.957Z,10.73
2022-10-03T18:57:06.499Z,10.68
2022-10-03T18:59:38.945Z,10.72
2022-10-03T19:02:06.694Z,10.72
2022-10-03T19:04:39.888Z,10.67
2022-10-03T19:07:18.318Z,10.66
2022-10-03T19:10:04.927Z,10.72
2022-10-03T19:12:35.462Z,10.80
2022-10-03T19:15:16.291Z,10.68
2022-10-03T19:17:51.328Z,10.70
2022-10-03T19:20:23.536Z,10.67
2022-10-03T19:23:01.293Z,10.58
2022-10-03T19:25:29.776Z,10.61
2022-10-03T19:28:00.676Z,10.58
2022-10-03T19:30:30.121Z,10.50
2022-10-03T19:33:00.267Z,10.48
2022-10-03T19:35:28.298Z,10.56
2022-10-03T19:38:02.606Z,10.58
2022-10-03T19:40:37.501Z,10.48
2022-10-03T19:43:24.905Z,10.42
2022-10-03T19:45:59.394Z,10.40
2022-10-03T19:48:28.386Z,10.31
2022-10-03T19:50:55.997Z,10.34
2022-10-03T19:53:24.934Z,10.32
2022-10-03T19:55:53.838Z,10.28
2022-10-03T19:58:24.329Z,10.30
2022-10-03T20:00:54.100Z,10.44
2022-10-03T20:03:26.053Z,10.38
2022-10-03T20:05:59.512Z,10.35
2022-10-03T20:08:32.992Z,10.30
2022-10-03T20:11:21.318Z,10.24
2022-10-03T20:13:49.858Z,10.23
2022-10-03T20:16:19.726Z,10.22
2022-10-03T20:18:49.839Z,10.23
2022-10-03T20:21:19.785Z,10.26
2022-10-03T20:23:49.369Z,10.24
2022-10-03T20:26:21.281Z,10.09
2022-10-03T20:29:07.766Z,10.02
2022-10-03T20:31:37.047Z,9.94
2022-10-03T20:34:06.938Z,9.67
2022-10-03T20:36:38.940Z,9.51
2022-10-03T20:39:13.693Z,9.36
2022-10-03T20:41:52.202Z,9.38
2022-10-03T20:44:34.067Z,9.52
2022-10-03T20:47:06.906Z,9.07
2022-10-03T20:49:36.182Z,9.16
2022-10-03T20:52:06.055Z,9.25
2022-10-03T20:54:48.384Z,9.20
2022-10-03T20:57:19.040Z,9.21
2022-10-03T20:59:48.301Z,9.29
2022-10-03T21:02:24.185Z,9.19
2022-10-03T21:04:54.818Z,9.05
2022-10-03T21:07:36.969Z,9.14
2022-10-03T21:10:15.194Z,9.19
2022-10-03T21:12:46.815Z,9.23
2022-10-03T21:15:25.052Z,9.22
2022-10-03T21:17:55.902Z,9.25
2022-10-03T21:20:25.547Z,9.29
2022-10-03T21:22:54.911Z,9.17
2022-10-03T21:25:26.783Z,8.96
2022-10-03T21:27:55.941Z,8.58
2022-10-03T21:30:25.206Z,8.68
2022-10-03T21:32:58.183Z,8.79
2022-10-03T21:35:28.317Z,8.83
2022-10-03T21:38:04.199Z,8.85
2022-10-03T21:40:49.799Z,8.77
2022-10-03T21:43:27.488Z,8.65
2022-10-03T21:45:59.916Z,8.48
2022-10-03T21:48:36.102Z,8.45
2022-10-03T21:51:14.691Z,8.49
2022-10-03T21:53:49.317Z,8.44
2022-10-03T21:56:30.197Z,8.47
2022-10-03T21:59:09.501Z,8.40
2022-10-03T22:01:43.417Z,8.38
2022-10-03T22:04:16.460Z,8.36
2022-10-03T22:06:49.035Z,8.39
2022-10-03T22:09:17.043Z,8.39
2022-10-03T22:11:50.083Z,8.41
2022-10-03T22:14:24.844Z,8.48
2022-10-03T22:16:57.382Z,8.50
2022-10-03T22:19:32.886Z,8.19
2022-10-03T22:22:16.224Z,7.85
2022-10-03T22:24:53.728Z,7.93
2022-10-03T22:27:27.867Z,7.90
2022-10-03T22:30:01.690Z,7.95
2022-10-03T22:32:35.104Z,8.12
2022-10-03T22:35:11.591Z,8.22
2022-10-03T22:37:40.064Z,8.29
2022-10-03T22:40:08.771Z,8.26
2022-10-03T22:42:43.774Z,8.23
2022-10-03T22:45:12.351Z,8.27
2022-10-03T22:47:40.478Z,8.22
2022-10-03T22:50:10.661Z,8.27
2022-10-03T22:52:40.501Z,8.33
2022-10-03T22:55:10.080Z,8.25
2022-10-03T22:57:39.894Z,8.31
2022-10-03T23:00:10.361Z,8.25
2022-10-03T23:02:41.550Z,8.26
2022-10-03T23:05:11.751Z,8.24
2022-10-03T23:07:57.172Z,8.21
2022-10-03T23:10:35.374Z,8.22
2022-10-03T23:13:06.848Z,8.21
2022-10-03T23:15:35.306Z,8.20
2022-10-03T23:18:28.795Z,8.25
2022-10-03T23:21:04.898Z,8.20
2022-10-03T23:23:38.359Z,8.15
2022-10-03T23:26:34.051Z,8.19
2022-10-03T23:29:05.599Z,7.89
2022-10-03T23:31:58.313Z,7.93
2022-10-03T23:35:11.726Z,8.00
2022-10-03T23:37:42.490Z,7.97
2022-10-03T23:40:39.746Z,7.90
2022-10-03T23:43:24.203Z,7.84
2022-10-03T23:45:53.807Z,7.60
2022-10-03T23:48:23.825Z,7.70
2022-10-03T23:50:53.828Z,7.43
2022-10-03T23:53:30.934Z,7.28
2022-10-03T23:55:59.907Z,7.41
2022-10-03T23:58:30.016Z,7.47
